createdAt,value
2019-05-05T00:02:47.779Z,23.47
2019-05-05T00:07:54.159Z,23.37
2019-05-05T00:13:17.597Z,25.33
2019-05-05T00:18:42.249Z,25.13
2019-05-05T00:23:47.888Z,27.70
2019-05-05T00:29:12.226Z,28.13
2019-05-05T00:34:17.587Z,28.07
2019-05-05T00:39:25.347Z,25.43
2019-05-05T00:44:41.974Z,28.07
2019-05-05T00:49:59.700Z,43.37
2019-05-05T00:55:07.453Z,55.87
2019-05-05T01:00:31.886Z,60.67
2019-05-05T01:05:44.804Z,62.67
2019-05-05T01:10:50.879Z,55.90
2019-05-05T01:15:56.748Z,58.27
2019-05-05T01:21:04.388Z,53.67
2019-05-05T01:26:28.608Z,53.20
2019-05-05T01:31:34.688Z,50.40
2019-05-05T01:36:40.107Z,46.40
2019-05-05T01:41:47.323Z,44.43
2019-05-05T01:46:54.970Z,42.17
2019-05-05T01:52:00.528Z,46.07
2019-05-05T01:57:25.397Z,40.40
2019-05-05T02:02:50.126Z,44.07
2019-05-05T02:07:55.465Z,44.30
2019-05-05T02:13:00.776Z,43.07
2019-05-05T02:18:06.051Z,33.23
2019-05-05T02:23:30.711Z,27.20
2019-05-05T02:28:59.781Z,25.57
2019-05-05T02:34:05.533Z,26.17
2019-05-05T02:39:11.857Z,25.57
2019-05-05T02:44:17.844Z,26.90
2019-05-05T02:49:25.578Z,25.53
2019-05-05T02:54:50.816Z,24.20
2019-05-05T03:00:00.830Z,31.83
2019-05-05T03:05:06.737Z,24.53
2019-05-05T03:10:14.146Z,28.90
2019-05-05T03:15:58.459Z,23.10
2019-05-05T03:21:07.125Z,30.30
2019-05-05T03:26:11.216Z,25.10
2019-05-05T03:31:16.930Z,31.60
2019-05-05T03:36:24.491Z,25.90
2019-05-05T03:41:39.197Z,29.77
2019-05-05T03:47:04.054Z,31.23
2019-05-05T03:52:09.770Z,29.80
2019-05-05T03:57:15.586Z,24.57
2019-05-05T04:02:34.206Z,24.57
2019-05-05T04:07:40.836Z,22.60
2019-05-05T04:12:46.804Z,22.07
2019-05-05T04:17:53.934Z,21.20
2019-05-05T04:22:59.486Z,19.97
2019-05-05T04:28:04.974Z,24.83
2019-05-05T04:33:09.927Z,22.10
2019-05-05T04:38:15.150Z,17.43
2019-05-05T04:43:33.842Z,24.20
2019-05-05T04:48:55.879Z,16.40
2019-05-05T04:54:11.334Z,15.67
2019-05-05T04:59:36.102Z,16.03
2019-05-05T05:10:31.965Z,13.90
2019-05-05T05:15:37.330Z,11.30
2019-05-05T05:20:44.287Z,13.07
2019-05-05T05:25:49.358Z,12.70
2019-05-05T05:30:54.713Z,12.80
2019-05-05T05:36:19.329Z,9.67
2019-05-05T05:41:46.309Z,11.87
2019-05-05T05:47:11.026Z,9.50
2019-05-05T05:52:18.942Z,9.97
2019-05-05T05:57:24.063Z,8.50
2019-05-05T06:02:29.705Z,7.97
2019-05-05T06:07:34.875Z,8.50
2019-05-05T06:12:40.065Z,9.73
2019-05-05T06:17:45.344Z,6.13
2019-05-05T06:22:50.808Z,6.97
2019-05-05T06:28:15.022Z,4.30
2019-05-05T06:33:39.439Z,4.73
2019-05-05T06:38:44.665Z,5.20
2019-05-05T06:44:08.032Z,3.10
2019-05-05T06:49:13.758Z,7.90
2019-05-05T06:54:38.254Z,3.20
2019-05-05T06:59:44.002Z,3.10
2019-05-05T07:04:49.808Z,6.10
2019-05-05T07:09:55.201Z,5.97
2019-05-05T07:15:00.838Z,4.13
2019-05-05T07:20:07.247Z,4.00
2019-05-05T07:25:13.763Z,2.87
2019-05-05T07:30:19.007Z,3.63
2019-05-05T07:40:57.894Z,2.90
2019-05-05T07:46:04.536Z,2.63
2019-05-05T07:51:10.283Z,3.43
2019-05-05T07:56:16.975Z,2.47
2019-05-05T08:01:24.354Z,3.30
2019-05-05T08:06:29.755Z,2.70
2019-05-05T08:11:35.361Z,1.93
2019-05-05T08:16:53.624Z,2.50
2019-05-05T08:21:59.200Z,3.27
2019-05-05T08:27:09.436Z,1.87
2019-05-05T08:32:24.990Z,4.13
2019-05-05T08:37:29.947Z,3.27
2019-05-05T08:42:35.387Z,2.63
2019-05-05T08:47:40.396Z,2.73
2019-05-05T08:52:45.807Z,2.57
2019-05-05T08:57:50.951Z,2.80
2019-05-05T09:02:56.471Z,2.53
2019-05-05T09:08:04.217Z,3.70
2019-05-05T09:13:09.239Z,1.53
2019-05-05T09:18:14.800Z,3.73
2019-05-05T09:23:20.358Z,4.70
2019-05-05T09:28:35.959Z,1.97
2019-05-05T09:33:41.482Z,3.00
2019-05-05T09:38:46.680Z,2.87
2019-05-05T09:43:53.917Z,2.07
2019-05-05T09:48:59.918Z,2.47
2019-05-05T09:54:13.922Z,2.30
2019-05-05T09:59:13.583Z,1.70
2019-05-05T10:04:20.078Z,3.57
2019-05-05T10:09:25.759Z,1.87
2019-05-05T10:14:31.322Z,1.47
2019-05-05T10:19:38.119Z,2.83
2019-05-05T10:24:44.878Z,1.70
2019-05-05T10:29:50.159Z,4.67
2019-05-05T10:35:04.580Z,3.00
2019-05-05T10:40:11.847Z,2.30
2019-05-05T10:45:17.790Z,1.90
2019-05-05T10:50:24.741Z,2.30
2019-05-05T10:55:29.654Z,2.10
2019-05-05T11:00:40.682Z,1.80
2019-05-05T11:05:46.270Z,4.00
2019-05-05T11:10:51.959Z,3.90
2019-05-05T11:15:57.682Z,4.03
2019-05-05T11:21:04.026Z,2.20
2019-05-05T11:26:09.999Z,2.30
2019-05-05T11:31:15.118Z,1.67
2019-05-05T11:36:38.919Z,2.47
2019-05-05T11:41:44.210Z,2.00
2019-05-05T11:46:50.081Z,3.07
2019-05-05T11:51:55.310Z,3.20
2019-05-05T11:57:00.750Z,1.90
2019-05-05T12:02:05.784Z,4.20
2019-05-05T12:07:11.067Z,2.60
2019-05-05T12:12:16.527Z,2.27
2019-05-05T12:17:24.292Z,2.47
2019-05-05T12:22:29.928Z,1.63
2019-05-05T12:27:52.926Z,2.50
2019-05-05T12:32:57.926Z,1.93
2019-05-05T12:38:03.328Z,2.07
2019-05-05T12:43:08.630Z,2.77
2019-05-05T12:48:21.106Z,2.17
2019-05-05T12:53:26.447Z,1.67
2019-05-05T12:58:33.495Z,1.80
2019-05-05T13:03:38.557Z,2.47
2019-05-05T13:08:44.494Z,2.00
2019-05-05T13:13:49.993Z,1.13
2019-05-05T13:18:55.444Z,1.80
2019-05-05T13:24:14.152Z,1.63
2019-05-05T13:29:19.796Z,2.00
2019-05-05T13:34:26.626Z,3.13
2019-05-05T13:39:33.907Z,4.10
2019-05-05T13:45:00.466Z,1.90
2019-05-05T13:50:14.248Z,1.83
2019-05-05T13:55:20.027Z,2.43
2019-05-05T14:00:25.839Z,2.30
2019-05-05T14:05:31.515Z,1.60
2019-05-05T14:10:36.543Z,1.20
2019-05-05T14:15:43.962Z,2.80
2019-05-05T14:20:48.829Z,6.00
2019-05-05T14:25:54.540Z,3.23
2019-05-05T14:31:01.293Z,1.10
2019-05-05T14:36:14.348Z,4.00
2019-05-05T14:41:19.648Z,1.60
2019-05-05T14:46:25.185Z,3.00
2019-05-05T14:51:30.463Z,2.43
2019-05-05T14:56:36.705Z,2.30
2019-05-05T15:01:44.527Z,2.33
2019-05-05T15:06:50.663Z,2.83
2019-05-05T15:11:57.420Z,10.10
2019-05-05T15:17:03.654Z,1.77
2019-05-05T15:22:29.867Z,2.30
2019-05-05T15:27:56.326Z,1.70
2019-05-05T15:38:59.380Z,3.07
2019-05-05T15:44:44.409Z,1.50
2019-05-05T15:55:48.078Z,3.00
2019-05-05T16:01:04.719Z,2.00
2019-05-05T16:06:21.063Z,3.20
2019-05-05T16:11:26.966Z,3.00
2019-05-05T16:16:50.167Z,2.30
2019-05-05T16:22:06.193Z,1.90
2019-05-05T16:27:21.147Z,1.67
2019-05-05T16:32:21.929Z,3.87
2019-05-05T16:37:25.617Z,3.43
2019-05-05T16:42:30.816Z,2.40
2019-05-05T16:47:36.407Z,2.50
2019-05-05T16:52:49.163Z,2.30
2019-05-05T16:57:55.117Z,2.73
2019-05-05T17:03:01.107Z,3.67
2019-05-05T17:08:06.170Z,4.80
2019-05-05T17:18:54.120Z,6.17
2019-05-05T17:23:59.689Z,8.40
2019-05-05T17:29:04.931Z,5.07
2019-05-05T17:34:10.362Z,3.20
2019-05-05T17:39:15.811Z,5.23
2019-05-05T17:44:33.621Z,3.43
2019-05-05T17:49:49.170Z,4.30
2019-05-05T17:54:55.442Z,7.17
2019-05-05T18:00:00.431Z,9.40
2019-05-05T18:05:06.819Z,7.63
2019-05-05T18:10:17.429Z,6.37
2019-05-05T18:15:40.192Z,7.67
2019-05-05T18:20:45.189Z,9.27
2019-05-05T18:26:09.690Z,9.83
2019-05-05T18:31:15.559Z,9.87
2019-05-05T18:36:20.828Z,15.40
2019-05-05T18:41:36.399Z,11.57
2019-05-05T18:46:43.480Z,15.30
2019-05-05T18:51:48.550Z,16.83
2019-05-05T18:56:54.769Z,16.30
2019-05-05T19:02:14.378Z,14.17
2019-05-05T19:07:24.308Z,25.10
2019-05-05T19:12:29.713Z,18.07
2019-05-05T19:17:35.020Z,13.97
2019-05-05T19:22:40.291Z,14.07
2019-05-05T19:27:46.771Z,14.70
2019-05-05T19:32:54.068Z,16.03
2019-05-05T19:37:59.181Z,18.63
2019-05-05T19:43:04.929Z,16.60
2019-05-05T19:48:10.651Z,20.07
2019-05-05T19:53:25.600Z,17.90
2019-05-05T19:58:30.820Z,21.67
2019-05-05T20:03:36.040Z,21.17
2019-05-05T20:08:42.492Z,23.10
2019-05-05T20:13:48.738Z,21.47
2019-05-05T20:18:54.686Z,23.20
2019-05-05T20:24:19.158Z,44.33
2019-05-05T20:29:24.148Z,30.57
2019-05-05T20:34:39.790Z,28.00
2019-05-05T20:39:45.325Z,22.47
2019-05-05T20:44:50.788Z,14.50
2019-05-05T20:49:55.753Z,18.07
2019-05-05T20:55:01.588Z,24.23
2019-05-05T21:00:08.879Z,23.67
2019-05-05T21:05:14.630Z,27.27
2019-05-05T21:10:39.510Z,28.57
2019-05-05T21:15:45.160Z,24.97
2019-05-05T21:20:50.599Z,25.57
2019-05-05T21:26:14.002Z,23.97
2019-05-05T21:31:19.078Z,23.93
2019-05-05T21:36:24.381Z,27.93
2019-05-05T21:41:49.120Z,23.83
2019-05-05T21:46:54.151Z,24.63
2019-05-05T21:52:05.046Z,25.80
2019-05-05T21:57:27.120Z,24.83
2019-05-05T22:02:34.414Z,31.00
2019-05-05T22:07:39.365Z,30.27
2019-05-05T22:12:44.755Z,29.37
2019-05-05T22:17:50.503Z,28.50
2019-05-05T22:22:55.939Z,31.60
2019-05-05T22:28:20.569Z,28.33
2019-05-05T22:33:45.072Z,33.20
2019-05-05T22:38:50.302Z,27.10
2019-05-05T22:43:55.783Z,35.37
2019-05-05T22:49:01.150Z,35.93
2019-05-05T22:54:06.501Z,33.63
2019-05-05T22:59:13.777Z,28.93
2019-05-05T23:04:19.821Z,35.60
2019-05-05T23:09:44.513Z,35.00
2019-05-05T23:14:49.848Z,33.07
2019-05-05T23:19:56.607Z,30.83
2019-05-05T23:30:41.850Z,32.03
2019-05-05T23:35:45.505Z,29.00
2019-05-05T23:40:50.740Z,30.30
2019-05-05T23:46:15.370Z,31.40
2019-05-05T23:51:20.629Z,31.97
2019-05-05T23:56:25.971Z,28.43
